South Starksboro, Vermont
Current Conditions -  °F | °C
As of 11:55 AM on Saturday 25 Oct 2014 (Local Time) from K6B0 Reporting Station
Clear Clear  
Wind Chill: 53°   Ceiling: Unl
Heat Index: 53°   Visibility: 10mi
Dew Point: 42°   Wind: 5mph
Humidity: 64%   Direction: 170°S
Pressure: 29.72"   Gusts: NA
Location:  44.2287°N, 72.9928°W
Report Text: K6B0 251555Z AUTO 17004KT 10SM CLR 12/05 A2972 RMK AO2 T01190053
Loading
Personal Weather Stations






























Interactive Weather Map
Tropical Storm Tracking
New forecast layout! Learn more

10-Day Weather Forecast

Advertisements
Track Severe Weather on mobile